首页
METAR-TAF:

METAR-TAF

机场 :

亞維農, 法国

纬度: 43-54-26N, 经度: 004-54-07E, 海拔: 38米

当前天气观测

该预报发布于39分钟前的02:30 UTC
风速4节,风向
温度 1°C
湿度 93%
气压 1007 hPa
能見度: 0450

METAR: LFMV 170230Z AUTO 18004KT 0500 0450 R17/0650N FG VV/// 01/00 Q1007 TEMPO 0200 FG

时间: 04:09 (03:09 UTC)

预报

该预报发布于1小时和9分钟前的02:00 UTC
预报有效从17日的 03点(UTC)到 18日的 03点(UTC)
风速2节,风向多变
能见度10公里或以上
1500米以下无云,无积雨云
短暂存在
从 17日的 03点(UTC)到 17日的 07点(UTC)
能見度: 1500
浅雾
几率 40% :
短暂存在
从 17日的 03点(UTC)到 17日的 06点(UTC)
能見度: 0200
成为
从 17日的 06点(UTC)到 17日的 08点(UTC)
风速10节,风向西北
散云层高于1300英尺
成为
从 17日的 09点(UTC)到 17日的 11点(UTC)
能见度10公里或以上
1500米以下无云,无积雨云
短暂存在
从 17日的 11点(UTC)到 17日的 14点(UTC)
风速20节,风向西北,有时为30节阵风

TAF: LFMV 170200Z 1703/1803 VRB02KT CAVOK TEMPO 1703/1707 1500 MIFG NSC PROB40 TEMPO 1703/1706 0200 FG VV/// BECMG 1706/1708 32010KT NSW SCT013 BECMG 1709/1711 CAVOK TEMPO 1711/1714 32020G30KT

超过4000个机场的气象观测和天气预报(METAR&TAF报告)。

可查询的气象台以黄色和红色小点在地图上表示。

将鼠标移到小点上方,可查看气象台名称。

然后点击查看天气观测和预报。

如需切换地图:点击带黑十字的绿色按钮放大地图;点击带横线的绿色按钮缩小地图;或者点击绿色箭头查看邻近地区的地图。


METAR-TAF: